createdAt,value
2022-11-16T00:01:14.945Z,96.23
2022-11-16T00:03:42.460Z,90.47
2022-11-16T00:06:10.710Z,93.77
2022-11-16T00:08:40.387Z,97.07
2022-11-16T00:11:09.050Z,100.40
2022-11-16T00:13:36.521Z,94.00
2022-11-16T00:16:03.929Z,88.53
2022-11-16T00:18:31.952Z,99.50
2022-11-16T00:20:59.090Z,92.07
2022-11-16T00:23:25.737Z,89.57
2022-11-16T00:25:52.586Z,95.30
2022-11-16T00:28:19.223Z,90.17
2022-11-16T00:30:45.777Z,96.67
2022-11-16T00:33:15.046Z,91.60
2022-11-16T00:35:42.411Z,99.40
2022-11-16T00:38:09.141Z,94.43
2022-11-16T00:40:35.898Z,92.37
2022-11-16T00:43:02.501Z,95.90
2022-11-16T00:45:29.112Z,89.17
2022-11-16T00:48:00.319Z,86.17
2022-11-16T00:50:27.304Z,86.47
2022-11-16T00:52:54.526Z,85.37
2022-11-16T00:55:21.231Z,90.70
2022-11-16T00:57:47.884Z,94.47
2022-11-16T01:00:15.726Z,84.97
2022-11-16T01:02:42.338Z,94.17
2022-11-16T01:05:11.947Z,92.83
2022-11-16T01:07:39.897Z,90.07
2022-11-16T01:10:11.754Z,90.87
2022-11-16T01:12:38.103Z,88.13
2022-11-16T01:15:08.222Z,88.07
2022-11-16T01:17:34.914Z,91.50
2022-11-16T01:20:01.682Z,83.27
2022-11-16T01:22:28.252Z,96.87
2022-11-16T01:24:54.828Z,90.00
2022-11-16T01:27:22.294Z,91.17
2022-11-16T01:29:48.906Z,86.07
2022-11-16T01:32:15.510Z,82.87
2022-11-16T01:34:42.263Z,86.03
2022-11-16T01:37:09.180Z,89.87
2022-11-16T01:39:36.027Z,85.73
2022-11-16T01:42:03.083Z,95.90
2022-11-16T01:44:58.209Z,89.80
2022-11-16T01:47:25.132Z,85.03
2022-11-16T01:49:56.176Z,90.90
2022-11-16T01:52:27.633Z,77.67
2022-11-16T01:54:54.984Z,89.73
2022-11-16T01:57:23.971Z,83.07
2022-11-16T01:59:55.339Z,75.57
2022-11-16T02:02:22.954Z,81.33
2022-11-16T02:04:52.060Z,88.17
2022-11-16T02:07:26.023Z,82.30
2022-11-16T02:10:09.737Z,80.80
2022-11-16T02:12:57.163Z,88.37
2022-11-16T02:15:29.985Z,87.67
2022-11-16T02:18:10.158Z,90.53
2022-11-16T02:20:57.311Z,82.83
2022-11-16T02:24:18.978Z,87.97
2022-11-16T02:27:07.551Z,86.00
2022-11-16T02:29:39.434Z,87.03
2022-11-16T02:32:11.861Z,87.67
2022-11-16T02:34:42.215Z,86.33
2022-11-16T02:37:11.833Z,92.73
2022-11-16T02:39:40.327Z,90.83
2022-11-16T02:42:13.097Z,86.17
2022-11-16T02:44:44.666Z,83.67
2022-11-16T02:47:15.670Z,98.83
2022-11-16T02:49:47.109Z,86.60
2022-11-16T02:52:15.400Z,82.97
2022-11-16T02:54:41.964Z,91.13
2022-11-16T02:57:33.111Z,85.87
2022-11-16T03:00:02.078Z,89.93
2022-11-16T03:02:34.173Z,94.83
2022-11-16T03:05:05.481Z,84.07
2022-11-16T03:07:35.769Z,93.33
2022-11-16T03:10:03.113Z,88.77
2022-11-16T03:12:32.190Z,88.47
2022-11-16T03:15:02.423Z,92.67
2022-11-16T03:17:32.424Z,94.47
2022-11-16T03:20:03.744Z,96.73
2022-11-16T03:22:35.080Z,95.90
2022-11-16T03:25:02.339Z,103.33
2022-11-16T03:27:36.879Z,96.27
2022-11-16T03:30:07.335Z,98.73
2022-11-16T03:32:39.934Z,97.77
2022-11-16T03:35:14.048Z,99.50
2022-11-16T03:37:41.502Z,112.67
2022-11-16T03:40:10.481Z,115.27
2022-11-16T03:42:37.863Z,113.97
2022-11-16T03:45:06.664Z,113.23
2022-11-16T03:47:33.340Z,114.53
2022-11-16T03:49:59.952Z,117.70
2022-11-16T03:52:26.809Z,120.33
2022-11-16T03:54:53.379Z,122.13
2022-11-16T03:57:20.000Z,126.17
2022-11-16T03:59:46.547Z,123.03
2022-11-16T04:02:14.068Z,119.43
2022-11-16T04:04:59.079Z,132.67
2022-11-16T04:07:55.194Z,131.20
2022-11-16T04:10:40.211Z,143.00
2022-11-16T04:13:28.448Z,126.97
2022-11-16T04:16:09.567Z,146.90
2022-11-16T04:18:54.921Z,128.87
2022-11-16T04:21:43.473Z,132.50
2022-11-16T04:24:13.957Z,131.50
2022-11-16T04:27:01.838Z,128.97
2022-11-16T04:29:29.052Z,123.13
2022-11-16T04:32:13.822Z,132.67
2022-11-16T04:34:58.972Z,141.57
2022-11-16T04:37:43.373Z,145.40
2022-11-16T04:40:11.357Z,143.87
2022-11-16T04:42:38.090Z,138.37
2022-11-16T04:45:23.400Z,142.30
2022-11-16T04:47:50.189Z,137.40
2022-11-16T04:50:18.093Z,151.20
2022-11-16T04:52:45.138Z,156.80
2022-11-16T04:55:12.297Z,154.90
2022-11-16T04:57:39.101Z,156.40
2022-11-16T05:00:07.207Z,151.73
2022-11-16T05:02:33.918Z,146.23
2022-11-16T05:05:00.510Z,165.17
2022-11-16T05:07:27.815Z,157.57
2022-11-16T05:09:54.537Z,159.43
2022-11-16T05:12:23.260Z,179.83
2022-11-16T05:14:50.267Z,174.93
2022-11-16T05:17:18.178Z,164.40
2022-11-16T05:20:03.021Z,175.77
2022-11-16T05:22:30.444Z,172.00
2022-11-16T05:24:57.031Z,167.47
2022-11-16T05:27:24.974Z,180.33
2022-11-16T05:29:51.936Z,185.67
2022-11-16T05:32:19.537Z,175.57
2022-11-16T05:34:46.271Z,171.20
2022-11-16T05:37:13.579Z,184.13
2022-11-16T05:39:40.914Z,186.37
2022-11-16T05:42:07.611Z,190.93
2022-11-16T05:44:34.569Z,188.60
2022-11-16T05:47:01.417Z,184.53
2022-11-16T05:49:28.036Z,186.90
2022-11-16T05:51:54.715Z,192.63
2022-11-16T05:54:24.032Z,175.30
2022-11-16T05:56:52.041Z,187.30
2022-11-16T05:59:21.827Z,196.27
2022-11-16T06:01:48.580Z,199.13
2022-11-16T06:04:15.502Z,200.07
2022-11-16T06:06:42.773Z,203.30
2022-11-16T06:09:10.876Z,195.77
2022-11-16T06:11:37.525Z,199.93
2022-11-16T06:14:05.163Z,211.30
2022-11-16T06:16:31.786Z,195.53
2022-11-16T06:18:59.763Z,189.17
2022-11-16T06:21:26.364Z,206.50
2022-11-16T06:23:53.484Z,218.37
2022-11-16T06:26:20.049Z,201.87
2022-11-16T06:28:46.660Z,202.47
2022-11-16T06:31:14.330Z,194.97
2022-11-16T06:33:40.964Z,203.30
2022-11-16T06:36:08.365Z,193.57
2022-11-16T06:38:35.155Z,183.50
2022-11-16T06:41:02.960Z,187.43
2022-11-16T06:43:29.580Z,202.83
2022-11-16T06:45:57.469Z,199.80
2022-11-16T06:48:24.761Z,196.50
2022-11-16T06:50:51.894Z,184.97
2022-11-16T06:53:19.156Z,185.00
2022-11-16T06:55:45.787Z,193.03
2022-11-16T06:58:12.578Z,184.30
2022-11-16T07:00:39.348Z,189.50
2022-11-16T07:03:06.042Z,191.37
2022-11-16T07:05:33.303Z,187.60
2022-11-16T07:08:00.154Z,209.73
2022-11-16T07:10:26.763Z,187.57
2022-11-16T07:12:53.913Z,213.10
2022-11-16T07:15:20.543Z,192.07
2022-11-16T07:17:47.121Z,187.00
2022-11-16T07:20:13.883Z,190.07
2022-11-16T07:22:41.122Z,187.80
2022-11-16T07:25:08.954Z,196.93
2022-11-16T07:27:35.574Z,199.03
2022-11-16T07:30:03.976Z,195.83
2022-11-16T07:32:30.659Z,197.30
2022-11-16T07:34:59.395Z,177.83
2022-11-16T07:37:26.718Z,195.43
2022-11-16T07:39:57.380Z,193.70
2022-11-16T07:42:23.966Z,185.53
2022-11-16T07:44:50.515Z,177.07
2022-11-16T07:47:17.074Z,206.70
2022-11-16T07:49:43.685Z,180.53
2022-11-16T07:52:10.683Z,180.43
2022-11-16T07:54:37.476Z,189.70
2022-11-16T07:57:05.088Z,196.67
2022-11-16T07:59:31.723Z,171.03
2022-11-16T08:01:58.741Z,184.20
2022-11-16T08:04:25.759Z,187.70
2022-11-16T08:06:52.497Z,194.47
2022-11-16T08:09:22.340Z,182.83
2022-11-16T08:11:51.117Z,173.43
2022-11-16T08:14:18.530Z,162.10
2022-11-16T08:16:45.687Z,188.60
2022-11-16T08:19:12.329Z,166.17
2022-11-16T08:21:38.962Z,174.17
2022-11-16T08:24:06.653Z,171.20
2022-11-16T08:26:33.623Z,171.67
2022-11-16T08:29:00.553Z,169.00
2022-11-16T08:31:28.952Z,168.07
2022-11-16T08:33:56.252Z,168.50
2022-11-16T08:36:23.060Z,167.53
2022-11-16T08:38:51.541Z,165.57
2022-11-16T08:41:19.406Z,156.60
2022-11-16T08:43:46.943Z,156.90
2022-11-16T08:46:13.892Z,160.30
2022-11-16T08:48:42.189Z,169.93
2022-11-16T08:51:19.589Z,146.37
2022-11-16T08:53:48.715Z,152.47
2022-11-16T08:56:17.058Z,143.27
2022-11-16T08:58:46.163Z,144.07
2022-11-16T09:01:15.465Z,143.13
2022-11-16T09:03:42.911Z,144.43
2022-11-16T09:06:10.848Z,135.07
2022-11-16T09:08:39.668Z,127.50
2022-11-16T09:11:08.632Z,144.07
2022-11-16T09:13:35.607Z,141.33
2022-11-16T09:16:02.531Z,129.37
2022-11-16T09:18:29.603Z,110.23
2022-11-16T09:20:57.355Z,106.30
2022-11-16T09:23:25.710Z,102.30
2022-11-16T09:25:52.733Z,102.87
2022-11-16T09:28:20.501Z,93.77
2022-11-16T09:30:49.929Z,85.07
2022-11-16T09:33:16.747Z,80.83
2022-11-16T09:35:43.527Z,77.17
2022-11-16T09:38:12.710Z,63.77
2022-11-16T09:40:46.037Z,75.37
2022-11-16T09:43:20.724Z,71.97
2022-11-16T09:45:55.657Z,61.07
2022-11-16T09:48:23.798Z,62.27
2022-11-16T09:50:54.159Z,65.37
2022-11-16T09:53:30.346Z,70.20
2022-11-16T09:56:00.324Z,66.80
2022-11-16T09:58:31.655Z,60.07
2022-11-16T10:01:04.190Z,56.67
2022-11-16T10:03:36.135Z,72.73
2022-11-16T10:06:06.039Z,64.20
2022-11-16T10:08:42.914Z,73.63
2022-11-16T10:11:29.300Z,68.63
2022-11-16T10:14:04.668Z,79.33
2022-11-16T10:16:39.885Z,73.47
2022-11-16T10:19:13.184Z,75.00
2022-11-16T10:21:49.982Z,60.27
2022-11-16T10:24:41.165Z,60.07
2022-11-16T10:27:28.028Z,74.80
2022-11-16T10:30:08.430Z,64.77
2022-11-16T10:32:37.983Z,69.47
2022-11-16T10:35:13.278Z,66.57
2022-11-16T10:37:46.775Z,65.60
2022-11-16T10:40:19.997Z,64.07
2022-11-16T10:42:54.081Z,61.23
2022-11-16T10:45:26.275Z,68.50
2022-11-16T10:48:01.114Z,68.03
2022-11-16T10:50:32.861Z,82.07
2022-11-16T10:53:00.435Z,70.87
2022-11-16T10:55:28.358Z,75.17
2022-11-16T10:57:57.292Z,66.70
2022-11-16T11:00:42.601Z,75.60
2022-11-16T11:03:11.216Z,85.37
2022-11-16T11:05:47.846Z,74.77
2022-11-16T11:08:25.262Z,71.13
2022-11-16T11:11:01.104Z,81.03
2022-11-16T11:13:27.728Z,77.53
2022-11-16T11:16:14.785Z,75.13
2022-11-16T11:18:41.477Z,75.97
2022-11-16T11:21:16.479Z,76.07
2022-11-16T11:23:46.955Z,86.67
2022-11-16T11:26:34.731Z,80.13
2022-11-16T11:29:15.321Z,93.70
2022-11-16T11:31:45.570Z,74.03
2022-11-16T11:34:18.498Z,75.67
2022-11-16T11:36:48.865Z,79.57
2022-11-16T11:39:32.576Z,76.10
2022-11-16T11:42:19.774Z,74.17
2022-11-16T11:44:57.892Z,81.63
2022-11-16T11:47:58.205Z,76.37
2022-11-16T11:50:36.059Z,68.60
2022-11-16T11:53:07.885Z,84.17
2022-11-16T11:55:34.604Z,79.57
2022-11-16T11:58:03.900Z,76.80
2022-11-16T12:00:41.980Z,76.83
2022-11-16T12:03:38.443Z,81.67
2022-11-16T12:06:16.110Z,80.53
2022-11-16T12:09:15.629Z,78.00
2022-11-16T12:11:57.774Z,86.00
2022-11-16T12:14:35.380Z,88.17
2022-11-16T12:17:08.419Z,88.50
2022-11-16T12:19:55.500Z,76.63
2022-11-16T12:22:42.449Z,78.90
2022-11-16T12:25:21.243Z,71.23
2022-11-16T12:28:03.281Z,74.83
2022-11-16T12:30:39.086Z,81.47
2022-11-16T12:33:25.471Z,72.70
2022-11-16T12:35:59.648Z,77.53
2022-11-16T12:38:43.163Z,82.33
2022-11-16T12:41:56.289Z,63.17
2022-11-16T12:44:38.150Z,84.33
2022-11-16T12:47:17.161Z,77.07
2022-11-16T12:50:04.696Z,65.60
2022-11-16T12:52:47.859Z,66.37
2022-11-16T12:55:29.768Z,80.03
2022-11-16T12:58:09.622Z,71.87
2022-11-16T13:00:52.844Z,63.30
2022-11-16T13:03:28.456Z,67.83
2022-11-16T13:05:59.810Z,62.07
2022-11-16T13:08:43.143Z,59.67
2022-11-16T13:11:17.906Z,64.50
2022-11-16T13:13:51.436Z,63.13
2022-11-16T13:16:20.004Z,76.33
2022-11-16T13:18:47.628Z,59.33
2022-11-16T13:21:28.552Z,58.27
2022-11-16T13:24:15.620Z,52.73
2022-11-16T13:26:47.919Z,62.23
2022-11-16T13:29:26.117Z,52.77
2022-11-16T13:31:58.052Z,55.63
2022-11-16T13:34:31.070Z,54.93
2022-11-16T13:36:57.996Z,55.67
2022-11-16T13:40:06.100Z,44.00
2022-11-16T13:42:35.356Z,44.30
2022-11-16T13:45:07.416Z,45.97
2022-11-16T13:47:34.662Z,46.57
2022-11-16T13:50:05.167Z,55.07
2022-11-16T13:53:23.513Z,44.20
2022-11-16T13:55:31.776Z,53.47
2022-11-16T13:58:00.483Z,46.87
2022-11-16T14:00:30.671Z,46.43
2022-11-16T14:03:26.602Z,56.80
2022-11-16T14:05:53.911Z,48.43
2022-11-16T14:08:45.048Z,43.40
2022-11-16T14:11:27.504Z,39.10
2022-11-16T14:13:54.210Z,43.47
2022-11-16T14:16:44.981Z,46.60
2022-11-16T14:19:51.171Z,46.97
2022-11-16T14:22:43.879Z,40.50
2022-11-16T14:25:23.008Z,38.87
2022-11-16T14:27:57.693Z,48.73
2022-11-16T14:30:28.688Z,38.90
2022-11-16T14:32:56.986Z,37.83
2022-11-16T14:35:28.056Z,41.73
2022-11-16T14:37:58.634Z,44.37
2022-11-16T14:40:26.313Z,41.40
2022-11-16T14:45:47.150Z,54.73
2022-11-16T14:48:16.250Z,39.53
2022-11-16T14:50:44.896Z,42.30
2022-11-16T14:53:16.444Z,45.30
2022-11-16T14:55:45.225Z,42.33
2022-11-16T14:58:17.951Z,48.77
2022-11-16T15:00:52.771Z,40.13
2022-11-16T15:03:21.129Z,64.57
2022-11-16T15:05:48.132Z,39.17
2022-11-16T15:08:20.580Z,53.17
2022-11-16T15:10:52.139Z,40.47
2022-11-16T15:13:20.716Z,37.47
2022-11-16T15:15:47.812Z,39.37
2022-11-16T15:18:18.144Z,38.17
2022-11-16T15:20:49.594Z,40.20
2022-11-16T15:23:17.791Z,37.23
2022-11-16T15:25:46.316Z,38.50
2022-11-16T15:28:17.971Z,33.67
2022-11-16T15:30:48.258Z,35.57
2022-11-16T15:33:19.761Z,32.90
2022-11-16T15:35:46.904Z,42.43
2022-11-16T15:38:17.801Z,36.07
2022-11-16T15:40:50.129Z,33.80
2022-11-16T15:43:19.007Z,31.90
2022-11-16T15:45:46.254Z,28.97
2022-11-16T15:48:18.487Z,28.23
2022-11-16T15:51:03.050Z,38.27
2022-11-16T15:53:37.632Z,26.57
2022-11-16T15:56:08.231Z,29.70
2022-11-16T15:58:38.756Z,26.03
2022-11-16T16:01:05.827Z,26.37
2022-11-16T16:03:35.225Z,27.90
2022-11-16T16:06:03.256Z,26.53
2022-11-16T16:08:32.789Z,30.13
2022-11-16T16:11:08.465Z,27.37
2022-11-16T16:13:37.611Z,31.80
2022-11-16T16:16:25.798Z,38.23
2022-11-16T16:18:55.184Z,29.53
2022-11-16T16:21:22.049Z,37.33
2022-11-16T16:23:50.353Z,29.00
2022-11-16T16:26:17.984Z,30.07
2022-11-16T16:28:45.059Z,35.00
2022-11-16T16:31:12.348Z,38.90
2022-11-16T16:33:39.089Z,36.30
2022-11-16T16:36:06.632Z,30.80
2022-11-16T16:38:36.139Z,40.60
2022-11-16T16:41:04.695Z,43.23
2022-11-16T16:43:32.806Z,38.63
2022-11-16T16:46:01.607Z,29.80
2022-11-16T16:48:33.864Z,33.23
2022-11-16T16:51:00.472Z,33.83
2022-11-16T16:53:27.544Z,30.20
2022-11-16T16:55:54.361Z,26.80
2022-11-16T16:58:21.549Z,32.90
2022-11-16T17:00:49.328Z,29.07
2022-11-16T17:03:16.003Z,29.03
2022-11-16T17:05:42.786Z,32.10
2022-11-16T17:08:09.381Z,32.37
2022-11-16T17:10:37.573Z,34.67
2022-11-16T17:13:05.227Z,32.27
2022-11-16T17:15:32.160Z,36.70
2022-11-16T17:17:59.994Z,34.27
2022-11-16T17:20:27.233Z,33.70
2022-11-16T17:22:53.815Z,30.03
2022-11-16T17:25:20.983Z,34.70
2022-11-16T17:27:48.511Z,36.63
2022-11-16T17:30:15.932Z,32.97
2022-11-16T17:32:42.636Z,39.77
2022-11-16T17:35:10.363Z,31.20
2022-11-16T17:37:37.140Z,32.50
2022-11-16T17:40:05.025Z,37.77
2022-11-16T17:42:32.763Z,32.13
2022-11-16T17:44:59.651Z,32.13
2022-11-16T17:47:26.819Z,29.90
2022-11-16T17:49:54.037Z,31.13
2022-11-16T17:52:21.959Z,22.20
2022-11-16T17:54:48.664Z,23.67
2022-11-16T17:57:15.263Z,22.90
2022-11-16T17:59:42.186Z,22.20
2022-11-16T18:02:10.289Z,24.63
2022-11-16T18:04:37.396Z,28.83
2022-11-16T18:07:04.308Z,21.63
2022-11-16T18:09:31.653Z,27.80
2022-11-16T18:12:01.418Z,19.93
2022-11-16T18:14:28.312Z,22.00
2022-11-16T18:16:56.246Z,20.07
2022-11-16T18:19:26.600Z,24.53
2022-11-16T18:21:53.252Z,22.83
2022-11-16T18:24:19.885Z,28.50
2022-11-16T18:26:47.611Z,17.63
2022-11-16T18:29:18.439Z,20.33
2022-11-16T18:31:45.078Z,17.97
2022-11-16T18:34:12.816Z,16.87
2022-11-16T18:36:40.361Z,26.50
2022-11-16T18:39:07.709Z,19.90
2022-11-16T18:41:34.432Z,16.53
2022-11-16T18:44:02.355Z,36.77
2022-11-16T18:46:30.676Z,19.30
2022-11-16T18:48:57.687Z,15.60
2022-11-16T18:51:26.768Z,20.40
2022-11-16T18:53:53.784Z,15.93
2022-11-16T18:56:21.294Z,19.53
2022-11-16T18:58:50.859Z,17.67
2022-11-16T19:01:21.149Z,14.87
2022-11-16T19:03:47.908Z,16.57
2022-11-16T19:06:17.193Z,18.37
2022-11-16T19:08:45.421Z,15.40
2022-11-16T19:11:16.047Z,14.30
2022-11-16T19:13:43.719Z,18.67
2022-11-16T19:16:12.959Z,18.20
2022-11-16T19:18:40.644Z,17.07
2022-11-16T19:21:09.017Z,12.23
2022-11-16T19:23:36.896Z,22.50
2022-11-16T19:26:06.421Z,16.40
2022-11-16T19:28:35.811Z,16.23
2022-11-16T19:31:07.356Z,14.07
2022-11-16T19:33:34.442Z,16.97
2022-11-16T19:36:10.092Z,24.20
2022-11-16T19:38:37.280Z,16.70
2022-11-16T19:41:04.263Z,17.53
2022-11-16T19:43:31.309Z,13.63
2022-11-16T19:46:02.705Z,15.03
2022-11-16T19:48:31.046Z,17.70
2022-11-16T19:51:03.150Z,14.87
2022-11-16T19:53:31.712Z,13.97
2022-11-16T19:55:59.025Z,20.00
2022-11-16T19:58:26.678Z,13.10
2022-11-16T20:00:53.641Z,16.60
2022-11-16T20:03:20.635Z,11.43
2022-11-16T20:05:47.307Z,13.40
2022-11-16T20:08:14.344Z,17.60
2022-11-16T20:10:42.208Z,13.00
2022-11-16T20:13:08.821Z,14.57
2022-11-16T20:15:35.492Z,14.47
2022-11-16T20:18:03.738Z,13.57
2022-11-16T20:20:34.292Z,17.30
2022-11-16T20:23:04.765Z,15.70
2022-11-16T20:25:39.601Z,15.20
2022-11-16T20:28:07.130Z,16.93
2022-11-16T20:30:36.383Z,20.53
2022-11-16T20:33:05.396Z,26.80
2022-11-16T20:35:33.881Z,16.93
2022-11-16T20:38:02.284Z,15.87
2022-11-16T20:40:29.207Z,21.77
2022-11-16T20:42:59.633Z,15.93
2022-11-16T20:45:27.229Z,16.07
2022-11-16T20:47:54.328Z,18.27
2022-11-16T20:50:24.746Z,21.33
2022-11-16T20:52:52.798Z,14.83
2022-11-16T20:55:23.596Z,19.70
2022-11-16T20:57:50.850Z,19.70
2022-11-16T21:00:18.892Z,17.17
2022-11-16T21:02:49.606Z,13.43
2022-11-16T21:05:17.358Z,14.63
2022-11-16T21:07:43.957Z,17.40
2022-11-16T21:10:20.170Z,18.60
2022-11-16T21:13:07.402Z,15.63
2022-11-16T21:15:36.141Z,16.27
2022-11-16T21:18:05.791Z,15.37
2022-11-16T21:20:32.604Z,15.17
2022-11-16T21:22:59.304Z,21.43
2022-11-16T21:25:28.207Z,29.73
2022-11-16T21:27:56.533Z,15.87
2022-11-16T21:30:23.576Z,16.63
2022-11-16T21:32:51.000Z,17.03
2022-11-16T21:35:20.178Z,15.50
2022-11-16T21:37:47.454Z,16.93
2022-11-16T21:40:14.607Z,17.77
2022-11-16T21:42:41.532Z,17.33
2022-11-16T21:45:09.597Z,14.70
2022-11-16T21:47:36.227Z,21.47
2022-11-16T21:52:54.506Z,20.37
2022-11-16T21:55:21.182Z,15.60
2022-11-16T21:57:51.324Z,15.97
2022-11-16T22:00:19.126Z,14.57
2022-11-16T22:02:45.858Z,20.60
2022-11-16T22:05:30.498Z,16.23
2022-11-16T22:08:02.791Z,13.83
2022-11-16T22:10:29.336Z,17.63
2022-11-16T22:12:55.989Z,13.67
2022-11-16T22:15:22.648Z,15.00
2022-11-16T22:17:49.305Z,15.73
2022-11-16T22:20:16.662Z,14.63
2022-11-16T22:22:43.278Z,16.90
2022-11-16T22:25:13.150Z,20.93
2022-11-16T22:27:58.728Z,16.60
2022-11-16T22:30:26.709Z,13.30
2022-11-16T22:32:53.344Z,15.90
2022-11-16T22:35:20.001Z,13.80
2022-11-16T22:37:46.638Z,14.33
2022-11-16T22:40:17.775Z,16.07
2022-11-16T22:42:45.564Z,15.27
2022-11-16T22:45:12.195Z,17.10
2022-11-16T22:47:38.816Z,17.90
2022-11-16T22:50:06.176Z,14.70
2022-11-16T22:52:33.937Z,14.40
2022-11-16T22:55:00.522Z,16.53
2022-11-16T22:57:27.775Z,19.37
2022-11-16T22:59:54.649Z,20.83
2022-11-16T23:02:21.458Z,21.17
2022-11-16T23:04:49.223Z,15.70
2022-11-16T23:07:16.065Z,16.43
2022-11-16T23:09:43.309Z,14.77
2022-11-16T23:12:28.270Z,25.13
2022-11-16T23:15:13.675Z,20.47
2022-11-16T23:17:40.926Z,20.73
2022-11-16T23:20:27.816Z,17.30
2022-11-16T23:23:12.374Z,18.53
2022-11-16T23:25:57.587Z,17.33
2022-11-16T23:28:24.658Z,17.33
2022-11-16T23:30:52.024Z,19.37
2022-11-16T23:33:39.805Z,23.27
2022-11-16T23:36:07.026Z,15.00
2022-11-16T23:38:33.858Z,26.83
2022-11-16T23:41:21.386Z,17.67
2022-11-16T23:43:59.677Z,17.20
2022-11-16T23:46:28.471Z,16.67
2022-11-16T23:48:55.319Z,20.37
2022-11-16T23:51:23.018Z,16.40
2022-11-16T23:53:50.473Z,23.77
2022-11-16T23:56:17.285Z,15.93
2022-11-16T23:58:43.867Z,16.93
